Time;durP1;ratioP1;P1;durP2;ratioP2;P2;SDS_P1;SDS_P2;PMS_P1;PMS_P2;Temp;Humidity;BMP_temperature;BMP_pressure;BME280_temperature;BME280_humidity;BME280_pressure;Samples;Min_cycle;Max_cycle;Signal;HPM_P1;HPM_P2
2023/03/21 00:00:40;;;;;;;18.85;11.32;;;;;;;10.68;75.42;101598.63;5055636;28;20048;-64
2023/03/21 00:03:05;;;;;;;16.27;10.65;;;;;;;10.66;75.67;101598.88;5066873;28;20503;-64
2023/03/21 00:05:30;;;;;;;18.55;10.93;;;;;;;10.65;75.31;101590.78;5068931;28;20036;-64
2023/03/21 00:07:56;;;;;;;16.27;11.02;;;;;;;10.68;75.80;101595.84;5068032;28;20021;-65
2023/03/21 00:10:21;;;;;;;14.57;10.82;;;;;;;10.68;75.79;101585.59;5067455;28;20024;-65
2023/03/21 00:12:54;;;;;;;17.17;11.25;;;;;;;10.63;75.62;101584.63;5068267;28;20365;-65
2023/03/21 00:15:20;;;;;;;18.58;11.50;;;;;;;10.64;75.77;101586.31;5068139;28;20028;-65
2023/03/21 00:17:45;;;;;;;16.10;10.82;;;;;;;10.60;75.90;101576.75;5060963;28;20029;-65
2023/03/21 00:20:13;;;;;;;14.50;10.45;;;;;;;10.62;75.55;101571.84;5056020;28;20056;-65
2023/03/21 00:22:39;;;;;;;18.20;10.65;;;;;;;10.62;75.71;101572.69;5061975;28;20056;-65
2023/03/21 00:25:05;;;;;;;16.67;11.02;;;;;;;10.63;75.60;101570.75;5068322;28;20562;-66
2023/03/21 00:27:32;;;;;;;12.88;10.32;;;;;;;10.65;75.58;101574.13;5057160;28;20051;-64
2023/03/21 00:29:57;;;;;;;15.15;11.15;;;;;;;10.65;75.56;101563.00;5055023;28;20482;-65
2023/03/21 00:32:23;;;;;;;14.38;10.85;;;;;;;10.62;75.55;101567.13;5057783;28;20066;-64
2023/03/21 00:34:49;;;;;;;14.35;10.38;;;;;;;10.66;75.34;101559.16;5052524;28;20079;-64
2023/03/21 00:37:17;;;;;;;13.27;10.65;;;;;;;10.63;75.31;101557.72;5062120;28;20100;-65
2023/03/21 00:39:46;;;;;;;18.42;10.48;;;;;;;10.67;75.17;101552.53;5066223;28;20164;-64
2023/03/21 00:42:11;;;;;;;13.75;10.25;;;;;;;10.66;75.53;101559.16;5067327;28;20056;-65
2023/03/21 00:44:39;;;;;;;20.30;10.20;;;;;;;10.65;75.37;101554.69;5064225;28;20131;-64
2023/03/21 00:47:05;;;;;;;16.73;10.07;;;;;;;10.65;75.11;101544.44;5068043;28;20408;-64
2023/03/21 00:49:32;;;;;;;15.65;10.32;;;;;;;10.64;75.21;101544.66;5064750;28;20021;-64
2023/03/21 00:52:05;;;;;;;18.15;9.57;;;;;;;10.65;75.28;101538.91;5065030;28;20689;-64
2023/03/21 00:54:31;;;;;;;19.52;9.90;;;;;;;10.68;74.93;101538.41;5058944;28;20376;-64
2023/03/21 00:56:56;;;;;;;14.23;9.50;;;;;;;10.69;74.69;101530.91;5058453;28;20064;-64
2023/03/21 00:59:21;;;;;;;13.70;9.10;;;;;;;10.70;74.94;101529.84;5050679;28;20479;-64
2023/03/21 01:01:46;;;;;;;12.40;9.10;;;;;;;10.69;74.63;101531.78;5049486;28;20036;-64
2023/03/21 01:04:15;;;;;;;15.63;9.05;;;;;;;10.69;74.63;101526.22;5050503;28;20109;-64
2023/03/21 01:06:42;;;;;;;13.75;9.15;;;;;;;10.65;74.66;101519.47;5051684;28;20060;-64
2023/03/21 01:09:16;;;;;;;14.65;9.25;;;;;;;10.67;74.61;101520.06;5051958;28;20057;-64
2023/03/21 01:11:42;;;;;;;14.95;8.73;;;;;;;10.68;74.65;101518.13;5054118;28;20442;-64
2023/03/21 01:14:07;;;;;;;12.85;8.55;;;;;;;10.64;74.64;101514.13;5068941;28;20077;-64
2023/03/21 01:16:33;;;;;;;15.38;8.88;;;;;;;10.67;74.48;101511.72;5070768;28;20077;-64
2023/03/21 01:18:59;;;;;;;16.92;8.82;;;;;;;10.67;74.25;101502.56;5069212;28;20024;-64
2023/03/21 01:21:25;;;;;;;17.45;8.75;;;;;;;10.67;74.48;101497.00;5071382;28;20357;-63
2023/03/21 01:23:50;;;;;;;13.52;8.60;;;;;;;10.65;74.48;101499.16;5071122;28;20040;-64
2023/03/21 01:26:16;;;;;;;14.88;8.65;;;;;;;10.68;74.07;101502.31;5068823;28;20033;-64
2023/03/21 01:28:42;;;;;;;14.15;8.68;;;;;;;10.66;74.33;101501.72;5071040;28;20017;-64
2023/03/21 01:31:10;;;;;;;11.90;7.55;;;;;;;10.68;73.88;101496.75;5068165;28;20610;-64
2023/03/21 01:33:36;;;;;;;17.35;8.45;;;;;;;10.69;73.73;101500.38;5064398;28;20030;-64
2023/03/21 01:36:02;;;;;;;16.27;8.50;;;;;;;10.68;73.70;101498.69;5071287;28;20033;-64
2023/03/21 01:38:28;;;;;;;13.35;7.95;;;;;;;10.70;73.54;101491.81;5070517;28;20506;-64
2023/03/21 01:40:53;;;;;;;12.43;7.88;;;;;;;10.69;73.44;101483.72;5070366;28;20033;-64
2023/03/21 01:43:24;;;;;;;16.23;8.02;;;;;;;10.68;73.59;101487.59;5070411;28;20027;-64
2023/03/21 01:46:26;;;;;;;16.30;8.15;;;;;;;10.71;73.34;101487.09;5069815;28;20040;-65
2023/03/21 01:49:03;;;;;;;17.00;9.18;;;;;;;10.70;73.36;101482.66;5067739;28;20089;-65
2023/03/21 01:51:33;;;;;;;15.18;8.30;;;;;;;10.66;73.38;101487.00;5059326;28;20032;-64
2023/03/21 01:54:00;;;;;;;13.65;8.15;;;;;;;10.65;73.34;101476.94;5050136;28;20120;-64
2023/03/21 01:56:33;;;;;;;17.27;8.65;;;;;;;10.63;73.56;101479.97;5062323;28;20530;-64
2023/03/21 01:59:06;;;;;;;15.82;8.40;;;;;;;10.65;73.50;101477.81;5070642;28;20436;-64
2023/03/21 02:01:33;;;;;;;13.95;8.13;;;;;;;10.63;73.47;101473.56;5053918;28;20111;-64
2023/03/21 02:04:02;;;;;;;14.15;8.77;;;;;;;10.62;73.57;101472.75;5070048;28;20085;-64
2023/03/21 02:06:53;;;;;;;15.55;8.73;;;;;;;10.65;73.74;101465.84;5051369;28;20435;-64
2023/03/21 02:09:22;;;;;;;14.35;8.20;;;;;;;10.62;73.63;101464.41;5061593;28;20075;-64
2023/03/21 02:11:48;;;;;;;14.63;8.50;;;;;;;10.61;73.52;101468.28;5070192;28;20044;-64
2023/03/21 02:14:16;;;;;;;16.05;8.52;;;;;;;10.61;73.44;101459.06;5069463;28;20115;-64
2023/03/21 02:16:55;;;;;;;13.38;8.30;;;;;;;10.60;73.87;101452.69;5068660;28;20040;-64
2023/03/21 02:19:33;;;;;;;14.25;7.85;;;;;;;10.60;73.60;101451.84;5070521;28;20031;-64
2023/03/21 02:22:04;;;;;;;14.50;8.20;;;;;;;10.56;73.71;101443.97;5069937;28;20388;-64
2023/03/21 02:24:53;;;;;;;13.63;8.45;;;;;;;10.61;73.80;101446.06;5067978;28;20090;-64
2023/03/21 02:27:23;;;;;;;15.95;8.73;;;;;;;10.60;73.61;101441.56;5073577;28;20035;-64
2023/03/21 02:30:08;;;;;;;13.23;7.93;;;;;;;10.60;73.52;101437.97;5076865;28;20040;-64
2023/03/21 02:33:09;;;;;;;17.17;8.27;;;;;;;10.57;73.57;101437.38;5076258;28;20063;-64
2023/03/21 02:35:37;;;;;;;12.95;8.73;;;;;;;10.57;73.38;101433.72;5067983;28;20021;-64
2023/03/21 02:38:17;;;;;;;16.60;8.55;;;;;;;10.57;73.77;101430.94;5075237;28;20029;-64
2023/03/21 02:40:55;;;;;;;12.80;8.02;;;;;;;10.57;73.62;101425.41;5077601;28;20017;-64
2023/03/21 02:43:34;;;;;;;14.15;8.32;;;;;;;10.59;73.29;101423.25;5073258;28;20040;-64
2023/03/21 02:46:28;;;;;;;13.73;8.27;;;;;;;10.62;73.57;101427.47;5072094;28;20016;-64
2023/03/21 02:49:06;;;;;;;12.52;8.20;;;;;;;10.57;73.39;101426.25;5058563;28;20063;-64
2023/03/21 02:51:33;;;;;;;13.65;8.20;;;;;;;10.60;73.23;101421.31;5077061;28;20476;-64
2023/03/21 02:54:10;;;;;;;16.15;8.50;;;;;;;10.57;72.94;101423.50;5077028;28;20398;-65
2023/03/21 02:56:36;;;;;;;15.20;9.25;;;;;;;10.55;73.22;101427.59;5076373;28;20052;-64
2023/03/21 02:59:04;;;;;;;15.90;8.48;;;;;;;10.51;73.55;101412.50;5074445;28;20017;-64
2023/03/21 03:01:29;;;;;;;14.40;8.80;;;;;;;10.53;73.52;101411.19;5072340;28;20032;-64
2023/03/21 03:03:54;;;;;;;16.35;8.98;;;;;;;10.53;73.71;101408.41;5076176;28;20032;-64
2023/03/21 03:06:28;;;;;;;16.67;9.27;;;;;;;10.55;73.66;101416.47;5077086;28;20048;-65
2023/03/21 03:09:11;;;;;;;12.40;8.52;;;;;;;10.51;73.71;101402.22;5076517;28;20032;-64
2023/03/21 03:11:41;;;;;;;;;;;;;;;10.67;73.23;101408.16;5076413;27;20573;-63
2023/03/21 03:14:19;;;;;;;14.73;9.13;;;;;;;10.54;73.77;101401.75;5074658;28;19924;-63
2023/03/21 03:17:34;;;;;;;15.73;9.18;;;;;;;10.57;73.46;101395.72;5072523;28;20082;-63
2023/03/21 03:20:17;;;;;;;16.77;8.45;;;;;;;10.53;73.80;101405.63;5051457;28;21730;-64
2023/03/21 03:22:48;;;;;;;17.65;9.10;;;;;;;10.50;73.82;101402.47;5036870;28;20120;-64
2023/03/21 03:25:20;;;;;;;17.95;9.68;;;;;;;10.47;73.97;101401.00;5048761;28;20044;-64
2023/03/21 03:27:49;;;;;;;20.20;8.93;;;;;;;10.46;73.83;101393.78;5065173;28;20047;-64
2023/03/21 03:30:15;;;;;;;17.02;9.20;;;;;;;10.44;74.09;101395.09;5076338;28;20040;-64
2023/03/21 03:32:43;;;;;;;19.65;9.55;;;;;;;10.45;74.29;101394.00;5074944;28;20028;-64
2023/03/21 03:35:11;;;;;;;18.58;9.85;;;;;;;10.44;73.88;101390.38;5069722;28;20024;-64
2023/03/21 03:37:38;;;;;;;16.55;8.95;;;;;;;10.47;73.92;101397.41;5058717;28;20037;-64
2023/03/21 03:40:12;;;;;;;19.52;9.38;;;;;;;10.44;74.24;101392.31;5052504;28;20025;-64
2023/03/21 03:42:48;;;;;;;18.08;8.75;;;;;;;10.41;74.38;101392.78;5053027;28;20029;-64
2023/03/21 03:45:13;;;;;;;15.65;9.40;;;;;;;10.43;74.00;101383.16;5056948;28;20035;-64
2023/03/21 03:48:00;;;;;;;16.10;9.05;;;;;;;10.45;74.20;101383.78;5073196;28;20033;-64
2023/03/21 03:51:06;;;;;;;17.70;9.27;;;;;;;10.42;74.40;101383.41;5072939;28;20492;-64
2023/03/21 03:53:58;;;;;;;15.23;8.48;;;;;;;10.45;74.29;101378.22;5057756;28;20037;-64
2023/03/21 03:56:25;;;;;;;14.37;8.33;;;;;;;10.44;74.09;101376.50;5072965;28;20403;-64
2023/03/21 03:58:50;;;;;;;15.45;8.40;;;;;;;10.40;74.23;101375.31;5072208;28;20754;-64
2023/03/21 04:01:16;;;;;;;17.67;8.82;;;;;;;10.43;74.10;101377.59;5064476;28;20040;-64
2023/03/21 04:03:45;;;;;;;18.15;9.73;;;;;;;10.43;74.11;101383.16;5071140;28;20040;-64
2023/03/21 04:06:13;;;;;;;16.48;9.02;;;;;;;10.40;74.27;101368.91;5071144;28;20036;-64
2023/03/21 04:08:38;;;;;;;16.02;9.00;;;;;;;10.42;74.34;101373.16;5071186;28;20067;-64
2023/03/21 04:11:04;;;;;;;16.50;9.50;;;;;;;10.40;74.14;101366.13;5068316;28;20076;-63
2023/03/21 04:13:30;;;;;;;14.48;9.32;;;;;;;10.37;74.01;101372.16;5071853;28;20119;-63
2023/03/21 04:15:55;;;;;;;17.75;8.88;;;;;;;10.35;73.79;101358.53;5070845;28;20361;-64
2023/03/21 04:18:22;;;;;;;20.10;9.35;;;;;;;10.31;74.07;101360.94;5052527;28;20041;-64
2023/03/21 04:20:49;;;;;;;16.17;9.20;;;;;;;10.34;74.16;101359.63;5054277;28;20468;-64
2023/03/21 04:23:17;;;;;;;19.25;9.73;;;;;;;10.29;74.20;101363.09;5057311;28;20086;-64
2023/03/21 04:25:43;;;;;;;14.05;8.88;;;;;;;10.30;73.98;101358.41;5072760;28;20063;-65
2023/03/21 04:28:09;;;;;;;17.50;9.18;;;;;;;10.27;74.08;101358.88;5064948;28;20043;-64
2023/03/21 04:30:34;;;;;;;20.13;10.00;;;;;;;10.30;74.13;101364.81;5067202;28;20017;-64
2023/03/21 04:33:00;;;;;;;17.80;9.10;;;;;;;10.34;74.20;101353.22;5052218;28;20064;-64
2023/03/21 04:35:27;;;;;;;16.25;9.70;;;;;;;10.31;74.24;101349.84;5062454;28;20028;-64
2023/03/21 04:37:53;;;;;;;15.07;9.50;;;;;;;10.36;73.59;101351.06;5072303;28;20030;-64
2023/03/21 04:40:19;;;;;;;17.52;9.82;;;;;;;10.34;73.67;101348.53;5072077;28;20033;-64
2023/03/21 04:42:45;;;;;;;17.65;9.75;;;;;;;10.32;73.61;101345.97;5070290;28;20494;-63
2023/03/21 04:45:11;;;;;;;16.95;9.48;;;;;;;10.32;73.84;101343.19;5068481;28;20495;-63
2023/03/21 04:47:37;;;;;;;18.92;9.25;;;;;;;10.32;73.71;101339.59;5060031;28;20122;-63
2023/03/21 04:50:03;;;;;;;19.15;10.15;;;;;;;10.31;73.68;101338.75;5051383;28;20036;-64
2023/03/21 04:52:28;;;;;;;15.75;9.27;;;;;;;10.30;73.69;101336.22;5054587;28;20117;-64
2023/03/21 04:54:53;;;;;;;20.23;9.75;;;;;;;10.34;73.67;101331.03;5072061;28;20711;-64
2023/03/21 04:57:19;;;;;;;17.00;9.07;;;;;;;10.30;73.57;101328.72;5069079;28;20444;-63
2023/03/21 04:59:44;;;;;;;17.00;8.95;;;;;;;10.35;73.53;101327.16;5071677;28;20466;-63
2023/03/21 05:02:11;;;;;;;18.65;9.23;;;;;;;10.36;73.56;101329.69;5077417;28;20030;-64
2023/03/21 05:04:40;;;;;;;18.30;10.23;;;;;;;10.36;73.42;101329.69;5091618;28;20058;-64
2023/03/21 05:07:06;;;;;;;19.80;10.23;;;;;;;10.37;73.23;101334.16;5091838;28;20028;-63
2023/03/21 05:09:31;;;;;;;18.10;10.00;;;;;;;10.35;73.43;101330.78;5089139;28;20291;-63
2023/03/21 05:11:56;;;;;;;16.17;9.07;;;;;;;10.31;73.18;101326.81;5066760;28;20518;-64
2023/03/21 05:14:24;;;;;;;18.27;9.85;;;;;;;10.35;73.43;101328.00;5070639;28;20116;-63
2023/03/21 05:16:55;;;;;;;19.65;9.50;;;;;;;10.34;73.58;101322.72;5070620;28;20480;-64
2023/03/21 05:19:23;;;;;;;16.85;9.10;;;;;;;10.39;73.19;101323.66;5063157;28;20143;-63
2023/03/21 05:21:49;;;;;;;18.45;9.13;;;;;;;10.39;73.07;101323.66;5068305;28;20491;-64
2023/03/21 05:24:19;;;;;;;15.93;9.02;;;;;;;10.40;73.07;101325.34;5069759;28;20040;-64
2023/03/21 05:26:54;;;;;;;16.73;8.95;;;;;;;10.39;73.18;101318.13;5057046;28;20028;-63
2023/03/21 05:29:20;;;;;;;16.45;9.32;;;;;;;10.39;73.06;101320.91;5071275;28;20025;-64
2023/03/21 05:31:48;;;;;;;16.98;8.80;;;;;;;10.39;72.92;101318.13;5068907;28;20028;-63
2023/03/21 05:34:14;;;;;;;20.50;9.07;;;;;;;10.35;73.18;101316.91;5069679;28;20051;-64
2023/03/21 05:36:39;;;;;;;15.45;8.75;;;;;;;10.37;73.17;101323.03;5066158;28;20032;-63
2023/03/21 05:39:05;;;;;;;16.30;8.82;;;;;;;10.37;73.03;101319.44;5058832;28;20453;-63
2023/03/21 05:41:31;;;;;;;18.13;8.27;;;;;;;10.41;72.90;101323.41;5051078;28;20068;-63
2023/03/21 05:43:56;;;;;;;17.45;8.77;;;;;;;10.39;73.08;101320.91;5050688;28;20411;-63
2023/03/21 05:46:22;;;;;;;19.10;9.18;;;;;;;10.38;73.05;101315.59;5067206;28;20032;-63
2023/03/21 05:48:47;;;;;;;17.35;9.27;;;;;;;10.41;73.03;101315.94;5070363;28;20039;-63
2023/03/21 05:51:13;;;;;;;22.05;9.35;;;;;;;10.41;73.03;101317.88;5066990;28;20039;-64
2023/03/21 05:53:39;;;;;;;19.02;9.20;;;;;;;10.40;73.00;101325.34;5067110;28;20139;-64
2023/03/21 05:56:05;;;;;;;18.40;9.02;;;;;;;10.39;73.19;101322.81;5059755;28;20437;-63
2023/03/21 05:58:30;;;;;;;19.42;8.98;;;;;;;10.39;72.88;101317.28;5066344;28;20443;-63
2023/03/21 06:00:56;;;;;;;19.02;8.85;;;;;;;10.39;72.81;101320.06;5064442;28;20064;-63
2023/03/21 06:03:21;;;;;;;16.15;8.70;;;;;;;10.34;72.94;101309.69;5063005;28;20118;-63
2023/03/21 06:05:46;;;;;;;18.90;8.48;;;;;;;10.34;72.90;101322.72;5068637;28;20044;-63
2023/03/21 06:08:11;;;;;;;17.88;8.20;;;;;;;10.37;72.92;101313.88;5068649;28;20078;-64
2023/03/21 06:10:37;;;;;;;15.07;7.70;;;;;;;10.36;72.64;101315.81;5069077;28;20131;-63
2023/03/21 06:13:02;;;;;;;14.40;8.10;;;;;;;10.38;73.10;101315.59;5069578;28;20428;-63
2023/03/21 06:15:28;;;;;;;16.30;7.63;;;;;;;10.40;72.97;101319.78;5067354;28;20032;-65
2023/03/21 06:17:59;;;;;;;17.90;8.13;;;;;;;10.38;72.86;101315.59;5070160;28;20554;-64
2023/03/21 06:20:24;;;;;;;19.15;8.13;;;;;;;10.42;72.84;101316.81;5060735;28;20108;-63
2023/03/21 06:22:50;;;;;;;15.52;7.50;;;;;;;10.40;72.66;101325.34;5069024;28;20127;-64
2023/03/21 06:25:17;;;;;;;12.85;7.95;;;;;;;10.40;72.80;101322.56;5063616;28;20021;-63
2023/03/21 06:27:42;;;;;;;14.93;7.38;;;;;;;10.42;72.81;101325.13;5052543;28;20037;-64
2023/03/21 06:30:08;;;;;;;15.05;7.53;;;;;;;10.43;72.78;101324.03;5067730;28;20451;-63
2023/03/21 06:32:33;;;;;;;15.18;7.07;;;;;;;10.45;72.82;101325.50;5065053;28;20065;-64
2023/03/21 06:34:59;;;;;;;15.48;7.15;;;;;;;10.47;73.01;101323.31;5069483;28;20032;-64
2023/03/21 06:37:25;;;;;;;14.32;6.65;;;;;;;10.46;72.94;101332.72;5056822;28;20157;-64
2023/03/21 06:39:51;;;;;;;13.48;7.63;;;;;;;10.47;73.35;101331.63;5069602;28;20024;-63
2023/03/21 06:42:16;;;;;;;14.70;7.20;;;;;;;10.49;73.25;101335.03;5069408;28;20033;-64
2023/03/21 06:44:42;;;;;;;12.73;6.90;;;;;;;10.50;73.70;101333.94;5068455;28;20028;-64
2023/03/21 06:47:07;;;;;;;17.63;7.32;;;;;;;10.51;73.81;101327.28;5064984;28;20142;-63
2023/03/21 06:49:33;;;;;;;18.70;7.22;;;;;;;10.49;74.03;101332.25;5060810;28;20108;-64
2023/03/21 06:51:58;;;;;;;13.48;7.03;;;;;;;10.50;74.17;101339.47;5064110;28;20031;-64
2023/03/21 06:54:23;;;;;;;10.75;6.43;;;;;;;10.52;73.95;101328.13;5060235;28;20108;-63
2023/03/21 06:56:49;;;;;;;14.43;6.78;;;;;;;10.51;74.61;101332.00;5056507;28;20104;-64
2023/03/21 06:59:14;;;;;;;16.10;6.80;;;;;;;10.49;74.75;101335.03;5069401;28;20483;-63
2023/03/21 07:01:41;;;;;;;15.18;6.53;;;;;;;10.49;74.91;101340.59;5063536;28;20116;-64
2023/03/21 07:04:07;;;;;;;16.30;7.38;;;;;;;10.48;75.42;101338.88;5049568;28;20096;-64
2023/03/21 07:06:33;;;;;;;17.67;6.75;;;;;;;10.51;75.37;101343.09;5062031;28;20091;-64
2023/03/21 07:08:58;;;;;;;14.48;6.53;;;;;;;10.45;75.45;101342.16;5067365;28;20705;-64
2023/03/21 07:11:24;;;;;;;13.35;6.72;;;;;;;10.46;75.75;101346.59;5071361;28;20654;-64
2023/03/21 07:13:51;;;;;;;15.25;6.72;;;;;;;10.47;76.09;101344.66;5061136;28;20056;-63
2023/03/21 07:16:17;;;;;;;11.10;6.82;;;;;;;10.48;76.14;101344.41;5058192;28;20036;-64
2023/03/21 07:18:42;;;;;;;18.92;7.45;;;;;;;10.49;76.02;101348.91;5059013;28;20036;-60
2023/03/21 07:21:08;;;;;;;15.85;6.78;;;;;;;10.49;76.12;101350.81;5067959;28;20028;-63
2023/03/21 07:23:37;;;;;;;14.70;7.05;;;;;;;10.53;76.25;101347.34;5058178;28;20090;-63
2023/03/21 07:26:03;;;;;;;12.98;6.90;;;;;;;10.51;76.39;101352.28;5066750;28;20049;-64
2023/03/21 07:28:30;;;;;;;15.85;7.30;;;;;;;10.52;76.53;101365.06;5066827;28;20420;-65
2023/03/21 07:30:58;;;;;;;18.27;7.78;;;;;;;10.48;76.95;101358.28;5067895;28;20043;-63
2023/03/21 07:33:24;;;;;;;17.58;8.27;;;;;;;10.49;76.91;101353.59;5065022;28;20105;-63
2023/03/21 07:35:51;;;;;;;16.98;7.63;;;;;;;10.44;77.39;101359.84;5058182;28;20044;-64
2023/03/21 07:38:18;;;;;;;16.38;7.80;;;;;;;10.49;77.14;101359.13;5062678;28;20036;-64
2023/03/21 07:40:44;;;;;;;15.45;7.32;;;;;;;10.52;77.33;101353.09;5068307;28;20079;-63
2023/03/21 07:43:10;;;;;;;16.48;8.00;;;;;;;10.50;77.61;101353.38;5062768;28;20563;-63
2023/03/21 07:45:35;;;;;;;15.38;7.93;;;;;;;10.50;77.70;101353.38;5053966;28;20029;-63
2023/03/21 07:48:01;;;;;;;15.88;8.43;;;;;;;10.51;77.64;101354.19;5057560;28;20074;-62
2023/03/21 07:50:26;;;;;;;17.30;8.40;;;;;;;10.52;77.74;101345.63;5072420;28;20386;-63
2023/03/21 07:52:52;;;;;;;15.57;7.95;;;;;;;10.49;77.87;101346.13;5066622;28;20037;-63
2023/03/21 07:55:18;;;;;;;14.20;8.98;;;;;;;10.50;78.02;101330.31;5067278;28;20032;-65
2023/03/21 07:57:43;;;;;;;18.85;8.25;;;;;;;10.51;78.26;101332.84;5069598;28;20506;-63
2023/03/21 08:00:09;;;;;;;15.20;9.15;;;;;;;10.51;78.12;101330.06;5063782;28;20036;-64
2023/03/21 08:02:35;;;;;;;15.57;8.80;;;;;;;10.51;78.29;101332.84;5065563;28;20043;-63
2023/03/21 08:05:00;;;;;;;13.43;8.63;;;;;;;10.49;78.73;101323.94;5064229;28;20078;-63
2023/03/21 08:07:26;;;;;;;19.88;9.35;;;;;;;10.53;78.56;101324.25;5063546;28;20450;-64
2023/03/21 08:09:52;;;;;;;14.80;9.23;;;;;;;10.55;78.26;101311.84;5062336;28;20815;-63
2023/03/21 08:12:17;;;;;;;17.38;9.75;;;;;;;10.56;78.35;101307.97;5061308;28;20119;-62
2023/03/21 08:14:43;;;;;;;16.08;9.40;;;;;;;10.58;78.56;101316.06;5063447;28;20049;-64
2023/03/21 08:17:09;;;;;;;18.98;9.60;;;;;;;10.60;78.56;101308.34;5063089;28;20119;-61
2023/03/21 08:19:36;;;;;;;22.90;10.27;;;;;;;10.61;78.35;101307.28;5063732;28;20383;-64
2023/03/21 08:22:01;;;;;;;15.55;9.48;;;;;;;10.62;78.03;101295.06;5063578;28;20047;-63
2023/03/21 08:24:27;;;;;;;18.20;10.48;;;;;;;10.61;78.49;101286.97;5062839;28;20028;-64
2023/03/21 08:26:53;;;;;;;15.75;9.07;;;;;;;10.63;78.30;101295.91;5058653;28;20028;-66
2023/03/21 08:29:20;;;;;;;18.42;9.55;;;;;;;10.55;78.10;101294.34;5054662;28;20020;-65
2023/03/21 08:31:45;;;;;;;14.45;9.18;;;;;;;10.57;78.02;101287.47;5056067;28;20429;-66
2023/03/21 08:34:12;;;;;;;18.92;9.38;;;;;;;10.54;77.72;101287.94;5063610;28;20460;-66
2023/03/21 08:36:38;;;;;;;18.27;8.90;;;;;;;10.52;77.62;101286.50;5064247;28;20534;-66
2023/03/21 08:39:04;;;;;;;17.02;8.82;;;;;;;10.50;77.71;101285.91;5056740;28;20056;-65
2023/03/21 08:41:35;;;;;;;13.63;8.30;;;;;;;10.50;77.76;101292.31;5069262;28;20024;-66
2023/03/21 08:44:02;;;;;;;15.18;7.50;;;;;;;10.52;77.69;101281.78;5052507;28;20048;-67
2023/03/21 08:46:28;;;;;;;16.20;8.15;;;;;;;10.45;76.78;101285.78;5063570;28;20033;-66
2023/03/21 08:48:53;;;;;;;12.80;7.68;;;;;;;10.44;77.44;101284.94;5056262;28;20031;-66
2023/03/21 08:51:19;;;;;;;14.98;7.40;;;;;;;10.43;76.98;101283.25;5070094;28;20028;-66
2023/03/21 08:53:44;;;;;;;15.02;7.13;;;;;;;10.46;77.03;101280.00;5070578;28;20031;-66
2023/03/21 08:56:10;;;;;;;13.27;7.78;;;;;;;10.46;76.94;101285.53;5067943;28;20036;-65
2023/03/21 08:58:36;;;;;;;14.80;6.82;;;;;;;10.48;77.00;101280.59;5064294;28;20031;-65
2023/03/21 09:01:03;;;;;;;15.23;7.35;;;;;;;10.51;77.37;101276.50;5068726;28;20048;-65
2023/03/21 09:03:29;;;;;;;14.82;8.23;;;;;;;10.53;77.49;101275.16;5066760;28;20028;-65
2023/03/21 09:05:55;;;;;;;16.35;7.88;;;;;;;10.50;77.30;101270.09;5063381;28;20039;-64
2023/03/21 09:08:22;;;;;;;17.65;8.60;;;;;;;10.55;77.40;101272.13;5069636;28;20031;-66
2023/03/21 09:10:56;;;;;;;19.55;7.82;;;;;;;10.56;77.96;101273.81;5068882;28;20040;-67
2023/03/21 09:13:22;;;;;;;13.98;8.43;;;;;;;10.55;77.80;101275.75;5069443;28;20089;-66
2023/03/21 09:15:48;;;;;;;13.85;8.27;;;;;;;10.55;77.60;101272.13;5067662;28;20409;-66
2023/03/21 09:18:16;;;;;;;13.80;8.38;;;;;;;10.56;77.77;101271.88;5061196;28;20111;-67
2023/03/21 09:20:45;;;;;;;14.57;9.00;;;;;;;10.59;77.80;101269.72;5053446;28;20032;-69
2023/03/21 09:23:15;;;;;;;13.80;7.68;;;;;;;10.57;77.39;101264.41;5057594;28;20043;-66
2023/03/21 09:25:44;;;;;;;13.55;7.70;;;;;;;10.61;77.33;101264.75;5060691;28;20060;-65
2023/03/21 09:28:10;;;;;;;12.80;7.22;;;;;;;10.63;76.89;101269.00;5057167;28;20029;-65
2023/03/21 09:30:39;;;;;;;12.23;7.05;;;;;;;10.63;77.53;101257.03;5053207;28;20029;-66
2023/03/21 09:33:07;;;;;;;15.07;7.82;;;;;;;10.63;76.62;101248.72;5067748;28;20028;-65
2023/03/21 09:35:33;;;;;;;15.82;7.45;;;;;;;10.65;77.21;101252.94;5056251;28;20032;-66
2023/03/21 09:37:59;;;;;;;15.02;6.88;;;;;;;10.67;76.95;101247.13;5062132;28;20557;-66
2023/03/21 09:41:02;;;;;;;17.08;7.28;;;;;;;10.70;77.05;101246.66;5063735;28;20028;-64
2023/03/21 09:43:55;;;;;;;13.07;7.22;;;;;;;10.71;77.33;101237.22;5066925;28;20468;-66
2023/03/21 09:46:30;;;;;;;13.20;6.90;;;;;;;10.71;77.07;101249.19;5061719;28;20043;-64
2023/03/21 09:49:08;;;;;;;12.73;6.40;;;;;;;10.71;76.25;101242.78;5062763;28;20361;-67
2023/03/21 09:51:38;;;;;;;14.88;6.47;;;;;;;10.72;76.55;101234.19;5063566;28;20033;-66
2023/03/21 09:54:12;;;;;;;13.25;6.68;;;;;;;10.74;76.74;101232.03;5069370;28;20044;-67
2023/03/21 09:56:41;;;;;;;10.20;6.50;;;;;;;10.74;76.95;101229.25;5058421;28;20036;-62
2023/03/21 09:59:17;;;;;;;11.88;7.18;;;;;;;10.77;76.88;101225.16;5060648;28;20028;-63
2023/03/21 10:01:44;;;;;;;15.95;7.43;;;;;;;10.79;76.73;101228.53;5061791;28;20029;-66
2023/03/21 10:04:15;;;;;;;13.00;6.53;;;;;;;10.80;76.53;101230.19;5067109;28;20024;-65
2023/03/21 10:06:44;;;;;;;11.27;5.85;;;;;;;10.81;75.81;101215.25;5070691;28;20381;-63
2023/03/21 10:09:23;;;;;;;13.30;6.80;;;;;;;10.84;76.13;101220.28;5071553;28;20470;-70
2023/03/21 10:11:57;;;;;;;13.50;6.97;;;;;;;10.86;76.29;101220.06;5079768;28;20056;-67
2023/03/21 10:14:44;;;;;;;17.08;6.88;;;;;;;10.89;76.06;101219.56;5066917;28;20032;-68
2023/03/21 10:17:26;;;;;;;13.55;6.25;;;;;;;10.86;76.13;101212.56;5066846;28;20483;-66
2023/03/21 10:20:10;;;;;;;11.93;5.65;;;;;;;10.89;76.43;101205.69;5061771;28;20382;-70
2023/03/21 10:22:39;;;;;;;11.38;6.32;;;;;;;10.92;76.29;101213.50;5080062;28;20020;-67
2023/03/21 10:25:06;;;;;;;12.60;6.53;;;;;;;10.95;76.04;101216.63;5072287;28;20107;-68
2023/03/21 10:27:35;;;;;;;10.77;6.55;;;;;;;10.95;76.43;101205.53;5068023;28;20037;-74
2023/03/21 10:30:01;;;;;;;13.07;6.45;;;;;;;11.00;75.92;101215.88;5061060;28;20025;-68
2023/03/21 10:32:29;;;;;;;12.40;6.03;;;;;;;11.04;75.80;101203.19;5070662;28;20093;-67
2023/03/21 10:34:57;;;;;;;12.88;6.18;;;;;;;11.06;75.69;101196.31;5060924;28;20036;-65
2023/03/21 10:37:23;;;;;;;9.68;5.78;;;;;;;11.11;75.61;101195.56;5072957;28;20026;-66
2023/03/21 10:39:51;;;;;;;12.10;5.82;;;;;;;11.16;75.73;101189.25;5056596;28;20041;-65
2023/03/21 10:42:18;;;;;;;10.32;5.85;;;;;;;11.20;75.26;101207.97;5066232;28;20043;-66
2023/03/21 10:44:48;;;;;;;12.23;5.90;;;;;;;11.22;75.08;101213.28;5075864;28;20032;-64
2023/03/21 10:47:19;;;;;;;10.93;6.10;;;;;;;11.28;75.26;101213.13;5068017;28;20048;-64
2023/03/21 10:49:46;;;;;;;12.95;6.88;;;;;;;11.29;75.26;101205.63;5060555;28;20465;-66
2023/03/21 10:52:15;;;;;;;10.90;6.40;;;;;;;11.30;74.93;101215.66;5082963;28;20035;-65
2023/03/21 10:54:41;;;;;;;9.45;6.65;;;;;;;11.33;74.63;101217.94;5086737;28;20059;-71
2023/03/21 10:57:10;;;;;;;13.55;6.32;;;;;;;11.38;75.03;101204.13;5083999;28;20060;-65
2023/03/21 10:59:42;;;;;;;17.23;6.78;;;;;;;11.41;74.69;101209.19;5086418;28;20032;-66
2023/03/21 11:02:17;;;;;;;11.88;5.70;;;;;;;11.47;74.16;101202.63;5075247;28;20476;-65
2023/03/21 11:04:44;;;;;;;13.25;5.82;;;;;;;11.50;73.35;101188.22;5075185;28;20472;-65
2023/03/21 11:07:13;;;;;;;12.38;5.90;;;;;;;11.57;73.60;101187.22;5075615;28;20037;-66
2023/03/21 11:09:52;;;;;;;10.48;6.22;;;;;;;11.62;72.68;101192.88;5073920;28;20025;-66
2023/03/21 11:12:28;;;;;;;10.63;5.82;;;;;;;11.62;72.06;101182.59;5071436;28;20044;-65
2023/03/21 11:14:55;;;;;;;12.63;5.72;;;;;;;11.64;71.79;101194.31;5061779;28;20460;-66
2023/03/21 11:17:23;;;;;;;15.43;6.07;;;;;;;11.66;71.53;101194.88;5068871;28;20038;-66
2023/03/21 11:19:51;;;;;;;12.90;5.38;;;;;;;11.68;70.97;101191.88;5060158;28;20156;-66
2023/03/21 11:22:21;;;;;;;11.85;5.43;;;;;;;11.70;71.37;101200.78;5058058;28;20101;-65
2023/03/21 11:24:51;;;;;;;15.15;8.52;;;;;;;11.71;70.55;101203.34;5069159;28;20111;-66